createdAt,value
2018-07-21T00:04:57.904Z,58.72
2018-07-21T00:13:51.717Z,59.21
2018-07-21T00:25:42.328Z,60.63
2018-07-21T00:34:14.542Z,60.08
2018-07-21T00:36:44.363Z,59.42
2018-07-21T00:39:15.588Z,59.88
2018-07-21T00:41:45.500Z,59.83
2018-07-21T00:44:15.358Z,59.68
2018-07-21T00:46:45.294Z,60.26
2018-07-21T00:49:15.315Z,60.48
2018-07-21T00:51:44.834Z,59.99
2018-07-21T00:54:14.526Z,60.62
2018-07-21T00:56:48.090Z,59.96
2018-07-21T00:59:17.881Z,59.06
2018-07-21T01:01:47.762Z,59.33
2018-07-21T01:04:17.808Z,60.20
2018-07-21T01:06:47.619Z,60.55
2018-07-21T01:09:17.812Z,60.79
2018-07-21T01:11:48.008Z,61.18
2018-07-21T01:14:18.127Z,59.96
2018-07-21T01:16:47.773Z,59.55
2018-07-21T01:19:17.893Z,60.08
2018-07-21T01:21:48.177Z,60.63
2018-07-21T01:24:18.168Z,60.86
2018-07-21T01:26:49.324Z,61.58
2018-07-21T01:29:19.061Z,61.98
2018-07-21T01:31:48.507Z,61.46
2018-07-21T01:34:18.471Z,61.28
2018-07-21T01:36:48.672Z,61.68
2018-07-21T01:39:19.496Z,61.16
2018-07-21T01:41:49.344Z,61.92
2018-07-21T01:44:19.393Z,61.32
2018-07-21T01:46:53.527Z,61.52
2018-07-21T01:49:23.467Z,61.05
2018-07-21T01:51:53.407Z,61.72
2018-07-21T01:54:23.673Z,62.10
2018-07-21T01:56:53.733Z,61.63
2018-07-21T01:59:23.692Z,61.87
2018-07-21T02:01:54.197Z,61.67
2018-07-21T02:04:24.133Z,62.11
2018-07-21T02:06:53.976Z,62.02
2018-07-21T02:09:24.067Z,61.85
2018-07-21T02:11:54.206Z,61.50
2018-07-21T02:14:24.021Z,60.44
2018-07-21T02:16:54.186Z,59.96
2018-07-21T02:19:24.088Z,59.59
2018-07-21T02:21:54.218Z,60.48
2018-07-21T02:24:24.149Z,61.56
2018-07-21T02:26:54.210Z,61.76
2018-07-21T02:29:23.908Z,61.81
2018-07-21T02:31:54.656Z,61.33
2018-07-21T02:34:24.723Z,62.11
2018-07-21T02:36:54.613Z,62.22
2018-07-21T02:39:24.645Z,62.20
2018-07-21T02:41:55.705Z,61.92
2018-07-21T02:44:26.054Z,61.76
2018-07-21T02:46:56.173Z,62.01
2018-07-21T02:49:26.128Z,62.71
2018-07-21T02:51:57.442Z,62.27
2018-07-21T02:54:28.411Z,62.47
2018-07-21T02:56:58.359Z,61.88
2018-07-21T02:59:28.256Z,62.66
2018-07-21T03:01:58.215Z,62.65
2018-07-21T03:04:28.141Z,62.24
2018-07-21T03:06:58.023Z,62.16
2018-07-21T03:09:27.907Z,61.71
2018-07-21T03:12:00.653Z,61.58
2018-07-21T03:14:30.682Z,61.48
2018-07-21T03:17:01.215Z,62.10
2018-07-21T03:19:31.257Z,61.15
2018-07-21T03:22:05.566Z,61.99
2018-07-21T03:24:46.455Z,61.33
2018-07-21T03:27:23.887Z,61.23
2018-07-21T03:30:01.313Z,62.56
2018-07-21T03:32:41.579Z,62.90
2018-07-21T03:35:21.922Z,62.53
2018-07-21T03:37:57.157Z,63.58
2018-07-21T03:40:34.884Z,64.27
2018-07-21T03:43:12.600Z,63.95
2018-07-21T03:45:51.490Z,63.57
2018-07-21T03:48:27.956Z,63.24
2018-07-21T03:51:08.457Z,64.65
2018-07-21T03:53:47.636Z,63.18
2018-07-21T03:56:21.332Z,62.09
2018-07-21T03:58:59.634Z,62.04
2018-07-21T04:01:35.838Z,60.44
2018-07-21T04:04:17.112Z,59.55
2018-07-21T04:06:55.770Z,59.19
2018-07-21T04:09:32.190Z,58.22
2018-07-21T04:17:44.907Z,59.40
2018-07-21T04:20:22.544Z,57.36
2018-07-21T04:23:03.112Z,58.86
2018-07-21T04:25:38.339Z,58.09
2018-07-21T04:28:24.171Z,58.09
2018-07-21T04:31:03.121Z,58.66
2018-07-21T04:33:40.430Z,58.21
2018-07-21T04:36:18.243Z,56.38
2018-07-21T04:38:53.578Z,55.59
2018-07-21T04:41:38.152Z,57.13
2018-07-21T04:44:16.957Z,56.45
2018-07-21T04:46:58.357Z,57.58
2018-07-21T04:49:42.764Z,58.63
2018-07-21T04:52:27.836Z,58.00
2018-07-21T04:55:06.073Z,58.07
2018-07-21T04:57:43.651Z,58.00
2018-07-21T05:00:25.131Z,56.78
2018-07-21T05:03:03.526Z,56.45
2018-07-21T05:05:42.094Z,55.90
2018-07-21T05:08:22.160Z,55.70
2018-07-21T05:10:59.547Z,55.24
2018-07-21T05:13:37.501Z,54.96
2018-07-21T05:16:17.697Z,54.84
2018-07-21T05:18:58.884Z,55.26
2018-07-21T05:21:35.215Z,53.13
2018-07-21T05:24:12.805Z,53.25
2018-07-21T05:26:57.542Z,52.14
2018-07-21T05:29:32.928Z,52.41
2018-07-21T05:32:13.032Z,53.12
2018-07-21T05:34:48.411Z,51.46
2018-07-21T05:40:12.229Z,52.63
2018-07-21T05:42:54.860Z,52.83
2018-07-21T05:45:34.867Z,51.55
2018-07-21T05:48:11.009Z,52.48
2018-07-21T05:50:53.695Z,52.62
2018-07-21T05:53:28.209Z,52.69
2018-07-21T05:56:09.589Z,52.37
2018-07-21T05:58:44.495Z,50.77
2018-07-21T06:04:16.122Z,49.83
2018-07-21T06:09:37.965Z,47.31
2018-07-21T06:12:13.307Z,45.42
2018-07-21T06:14:53.087Z,47.91
2018-07-21T06:17:31.146Z,49.44
2018-07-21T06:22:54.240Z,47.16
2018-07-21T06:25:47.826Z,47.03
2018-07-21T06:28:26.685Z,46.90
2018-07-21T06:31:04.554Z,46.89
2018-07-21T06:33:43.959Z,46.39
2018-07-21T06:36:18.902Z,46.25
2018-07-21T06:38:55.208Z,46.64
2018-07-21T06:41:37.468Z,45.95
2018-07-21T06:44:19.877Z,45.16
2018-07-21T06:46:57.464Z,46.63
2018-07-21T06:49:41.180Z,46.99
2018-07-21T06:52:21.512Z,46.59
2018-07-21T06:55:01.956Z,44.40
2018-07-21T06:57:41.587Z,43.66
2018-07-21T07:00:19.178Z,42.29
2018-07-21T07:05:41.953Z,43.57
2018-07-21T07:08:17.721Z,42.06
2018-07-21T07:13:39.091Z,41.37
2018-07-21T07:16:14.333Z,42.58
2018-07-21T07:18:53.553Z,44.60
2018-07-21T07:21:33.150Z,41.74
2018-07-21T07:24:17.910Z,41.21
2018-07-21T07:27:01.652Z,41.98
2018-07-21T07:29:42.334Z,41.62
2018-07-21T07:32:20.413Z,40.81
2018-07-21T07:37:39.200Z,40.80
2018-07-21T07:40:14.840Z,42.05
2018-07-21T07:42:55.670Z,40.25
2018-07-21T07:45:32.928Z,40.89
2018-07-21T07:48:09.799Z,39.90
2018-07-21T07:50:51.860Z,40.13
2018-07-21T07:53:29.990Z,40.00
2018-07-21T07:56:11.091Z,39.91
2018-07-21T08:01:29.953Z,38.48
2018-07-21T08:04:07.362Z,37.78
2018-07-21T08:06:48.480Z,38.74
2018-07-21T08:09:29.203Z,41.32
2018-07-21T08:12:07.400Z,41.44
2018-07-21T08:14:47.083Z,40.38
2018-07-21T08:17:27.019Z,39.53
2018-07-21T08:20:07.144Z,41.08
2018-07-21T08:22:50.047Z,40.93
2018-07-21T08:25:25.908Z,40.25
2018-07-21T08:30:58.369Z,40.33
2018-07-21T08:33:41.074Z,40.09
2018-07-21T08:39:17.914Z,40.10
2018-07-21T08:42:02.031Z,38.62
2018-07-21T08:44:46.616Z,38.79
2018-07-21T08:47:32.893Z,37.70
2018-07-21T08:50:11.177Z,37.36
2018-07-21T08:52:53.289Z,40.80
2018-07-21T08:58:17.721Z,37.55
2018-07-21T09:00:57.148Z,38.99
2018-07-21T09:03:36.314Z,38.79
2018-07-21T09:06:22.150Z,40.16
2018-07-21T09:11:43.927Z,39.20
2018-07-21T09:14:19.397Z,39.66
2018-07-21T09:17:06.920Z,42.01
2018-07-21T09:19:47.315Z,41.94
2018-07-21T09:22:25.318Z,40.27
2018-07-21T09:25:05.059Z,38.75
2018-07-21T09:27:47.829Z,40.75
2018-07-21T09:30:25.818Z,39.94
2018-07-21T09:33:09.440Z,39.24
2018-07-21T09:35:52.657Z,41.76
2018-07-21T09:38:35.529Z,41.37
2018-07-21T09:41:20.436Z,41.39
2018-07-21T09:49:35.593Z,48.44
2018-07-21T09:52:18.894Z,49.84
2018-07-21T09:55:04.582Z,49.30
2018-07-21T09:57:40.536Z,50.66
2018-07-21T10:00:21.928Z,47.53
2018-07-21T10:03:00.868Z,46.25
2018-07-21T10:05:39.950Z,42.03
2018-07-21T10:08:14.488Z,42.82
2018-07-21T10:10:54.866Z,41.10
2018-07-21T10:13:33.099Z,39.92
2018-07-21T10:16:14.048Z,40.99
2018-07-21T10:18:54.542Z,35.56
2018-07-21T10:21:31.832Z,35.86
2018-07-21T10:24:15.152Z,35.03
2018-07-21T10:29:44.262Z,35.08
2018-07-21T10:32:23.190Z,35.79
2018-07-21T10:37:48.289Z,34.72
2018-07-21T10:40:26.969Z,34.82
2018-07-21T10:43:10.366Z,33.50
2018-07-21T10:48:40.561Z,34.18
2018-07-21T10:51:21.023Z,33.23
2018-07-21T10:54:05.741Z,33.31
2018-07-21T10:56:40.985Z,32.21
2018-07-21T10:59:23.132Z,33.62
2018-07-21T11:02:01.384Z,31.31
2018-07-21T11:04:48.670Z,32.00
2018-07-21T11:07:24.073Z,33.27
2018-07-21T11:10:07.989Z,35.04
2018-07-21T11:12:45.857Z,34.53
2018-07-21T11:15:26.748Z,32.68
2018-07-21T11:18:08.699Z,32.29
2018-07-21T11:20:47.274Z,32.26
2018-07-21T11:23:28.706Z,31.16
2018-07-21T11:28:54.710Z,30.36
2018-07-21T11:31:36.569Z,30.95
2018-07-21T11:34:18.164Z,30.11
2018-07-21T11:36:58.579Z,30.39
2018-07-21T11:39:36.316Z,30.96
2018-07-21T11:42:13.790Z,30.81
2018-07-21T11:44:50.515Z,29.82
2018-07-21T11:47:39.945Z,30.25
2018-07-21T11:50:18.630Z,30.83
2018-07-21T11:52:58.872Z,31.09
2018-07-21T11:55:37.659Z,33.91
2018-07-21T11:58:16.675Z,34.72
2018-07-21T12:00:57.428Z,34.66
2018-07-21T12:03:32.828Z,37.92
2018-07-21T12:06:11.641Z,37.12
2018-07-21T12:08:53.277Z,33.08
2018-07-21T12:11:34.319Z,33.79
2018-07-21T12:14:13.932Z,33.26
2018-07-21T12:19:40.767Z,34.32
2018-07-21T12:22:27.840Z,35.36
2018-07-21T12:25:04.359Z,34.46
2018-07-21T12:27:46.944Z,36.53
2018-07-21T12:30:34.039Z,35.28
2018-07-21T12:33:15.165Z,38.36
2018-07-21T12:35:59.953Z,40.13
2018-07-21T12:38:37.926Z,41.55
2018-07-21T12:41:16.975Z,40.44
2018-07-21T12:43:59.816Z,43.37
2018-07-21T12:46:39.405Z,46.83
2018-07-21T12:52:15.423Z,51.82
2018-07-21T12:54:51.884Z,51.38
2018-07-21T12:57:24.192Z,50.80
2018-07-21T13:00:03.865Z,50.81
2018-07-21T13:02:49.126Z,52.39
2018-07-21T13:05:32.506Z,52.91
2018-07-21T13:08:16.123Z,54.27
2018-07-21T13:10:55.892Z,52.09
2018-07-21T13:13:38.893Z,51.24
2018-07-21T13:16:16.188Z,50.77
2018-07-21T13:18:55.311Z,51.00
2018-07-21T13:21:34.811Z,52.88
2018-07-21T13:24:12.633Z,52.62
2018-07-21T13:26:49.473Z,52.21
2018-07-21T13:29:26.076Z,53.47
2018-07-21T13:32:11.144Z,53.24
2018-07-21T13:34:49.704Z,53.43
2018-07-21T13:37:30.905Z,52.30
2018-07-21T13:40:10.817Z,52.81
2018-07-21T13:42:53.933Z,54.20
2018-07-21T13:45:28.525Z,52.15
2018-07-21T13:48:07.407Z,52.13
2018-07-21T13:50:51.374Z,51.72
2018-07-21T13:53:28.571Z,52.75
2018-07-21T13:56:11.308Z,52.56
2018-07-21T14:01:43.405Z,54.09
2018-07-21T14:04:24.284Z,55.19
2018-07-21T14:07:09.677Z,57.31
2018-07-21T14:09:53.345Z,54.82
2018-07-21T14:12:30.498Z,55.14
2018-07-21T14:15:13.130Z,58.43
2018-07-21T14:20:45.390Z,62.36
2018-07-21T14:23:23.243Z,62.25
2018-07-21T14:26:00.311Z,60.49
2018-07-21T14:28:38.908Z,60.88
2018-07-21T14:31:21.180Z,61.88
2018-07-21T14:33:56.476Z,62.69
2018-07-21T14:36:34.752Z,62.13
2018-07-21T14:39:20.310Z,60.87
2018-07-21T14:42:00.946Z,60.30
2018-07-21T14:44:39.190Z,61.00
2018-07-21T14:47:20.622Z,61.13
2018-07-21T14:49:58.935Z,61.22
2018-07-21T14:52:41.253Z,60.73
2018-07-21T14:55:24.179Z,59.97
2018-07-21T14:58:09.255Z,59.20
2018-07-21T15:00:46.470Z,60.23
2018-07-21T15:03:27.017Z,59.68
2018-07-21T15:06:05.813Z,59.39
2018-07-21T15:08:47.013Z,58.58
2018-07-21T15:11:20.840Z,58.71
2018-07-21T15:14:00.058Z,58.09
2018-07-21T15:16:38.416Z,58.70
2018-07-21T15:19:19.361Z,60.25
2018-07-21T15:21:58.397Z,60.32
2018-07-21T15:27:45.980Z,60.16
2018-07-21T15:30:26.383Z,61.38
2018-07-21T15:33:07.227Z,60.53
2018-07-21T15:35:46.931Z,59.04
2018-07-21T15:38:32.128Z,61.06
2018-07-21T15:41:08.703Z,60.78
2018-07-21T15:43:50.102Z,60.43
2018-07-21T15:46:35.230Z,59.83
2018-07-21T15:49:15.038Z,59.37
2018-07-21T15:51:50.805Z,59.50
2018-07-21T15:54:35.893Z,56.99
2018-07-21T15:57:17.832Z,56.83
2018-07-21T16:00:02.854Z,60.20
2018-07-21T16:02:44.261Z,57.21
2018-07-21T16:05:23.227Z,57.99
2018-07-21T16:08:03.096Z,56.92
2018-07-21T16:10:37.582Z,55.74
2018-07-21T16:13:19.930Z,55.62
2018-07-21T16:15:56.205Z,57.23
2018-07-21T16:18:30.818Z,56.60
2018-07-21T16:21:12.683Z,54.38
2018-07-21T16:23:51.793Z,55.79
2018-07-21T16:26:31.311Z,55.46
2018-07-21T16:29:08.573Z,54.86
2018-07-21T16:31:48.581Z,56.97
2018-07-21T16:34:35.748Z,57.22
2018-07-21T16:37:17.566Z,54.79
2018-07-21T16:40:00.591Z,56.77
2018-07-21T16:42:37.475Z,55.58
2018-07-21T16:45:19.029Z,55.68
2018-07-21T16:47:56.792Z,56.05
2018-07-21T16:50:39.938Z,56.70
2018-07-21T16:53:16.830Z,57.92
2018-07-21T16:56:00.167Z,56.31
2018-07-21T16:58:39.566Z,55.43
2018-07-21T17:01:17.979Z,55.72
2018-07-21T17:04:03.223Z,57.36
2018-07-21T17:06:38.649Z,56.11
2018-07-21T17:09:14.478Z,54.83
2018-07-21T17:11:56.437Z,55.89
2018-07-21T17:14:32.509Z,56.26
2018-07-21T17:17:19.897Z,57.37
2018-07-21T17:19:57.972Z,57.97
2018-07-21T17:22:34.459Z,57.99
2018-07-21T17:25:15.141Z,57.41
2018-07-21T17:27:56.085Z,58.55
2018-07-21T17:30:35.571Z,58.73
2018-07-21T17:33:17.409Z,59.58
2018-07-21T17:36:01.695Z,60.41
2018-07-21T17:41:35.412Z,61.11
2018-07-21T17:44:18.864Z,60.77
2018-07-21T17:46:56.925Z,61.52
2018-07-21T17:49:32.326Z,61.04
2018-07-21T17:52:05.940Z,60.32
2018-07-21T17:54:46.182Z,60.34
2018-07-21T17:57:25.180Z,60.08
2018-07-21T18:00:07.538Z,60.53
2018-07-21T18:02:49.610Z,60.13
2018-07-21T18:05:36.083Z,60.38
2018-07-21T18:08:20.914Z,60.61
2018-07-21T18:10:59.957Z,60.61
2018-07-21T18:13:34.823Z,58.94
2018-07-21T18:16:11.082Z,57.32
2018-07-21T18:18:47.030Z,57.08
2018-07-21T18:24:17.693Z,56.97
2018-07-21T18:26:59.190Z,58.48
2018-07-21T18:29:39.164Z,58.32
2018-07-21T18:32:15.770Z,56.93
2018-07-21T18:35:00.797Z,56.93
2018-07-21T18:37:34.817Z,57.55
2018-07-21T18:40:18.045Z,57.94
2018-07-21T18:42:58.181Z,56.55
2018-07-21T18:45:42.428Z,57.63
2018-07-21T18:48:21.464Z,56.76
2018-07-21T18:53:44.829Z,57.23
2018-07-21T18:59:13.128Z,58.21
2018-07-21T19:01:56.060Z,57.69
2018-07-21T19:04:35.591Z,58.32
2018-07-21T19:07:08.575Z,58.98
2018-07-21T19:09:46.189Z,58.42
2018-07-21T19:12:34.242Z,58.83
2018-07-21T19:15:15.630Z,59.09
2018-07-21T19:17:55.433Z,58.38
2018-07-21T19:20:36.755Z,59.80
2018-07-21T19:23:19.169Z,58.90
2018-07-21T19:28:51.333Z,55.88
2018-07-21T19:31:35.787Z,56.45
2018-07-21T19:34:15.396Z,56.17
2018-07-21T19:36:54.953Z,56.20
2018-07-21T19:39:36.063Z,55.51
2018-07-21T19:42:14.069Z,55.84
2018-07-21T19:44:51.159Z,55.94
2018-07-21T19:47:30.295Z,56.22
2018-07-21T19:50:10.956Z,56.27
2018-07-21T19:52:53.652Z,56.77
2018-07-21T19:55:34.018Z,57.21
2018-07-21T20:03:34.858Z,57.56
2018-07-21T20:06:14.637Z,55.79
2018-07-21T20:08:56.205Z,54.92
2018-07-21T20:11:40.642Z,54.87
2018-07-21T20:14:19.409Z,56.06
2018-07-21T20:17:02.356Z,56.67
2018-07-21T20:19:40.359Z,56.97
2018-07-21T20:22:17.074Z,56.82
2018-07-21T20:25:01.352Z,58.06
2018-07-21T20:27:43.286Z,57.21
2018-07-21T20:30:18.554Z,58.18
2018-07-21T20:32:57.304Z,58.62
2018-07-21T20:35:34.737Z,58.15
2018-07-21T20:38:15.567Z,58.37
2018-07-21T20:40:54.620Z,58.33
2018-07-21T20:43:33.599Z,56.33
2018-07-21T20:46:18.116Z,55.80
2018-07-21T20:49:01.518Z,55.16
2018-07-21T20:51:41.942Z,55.50
2018-07-21T20:54:19.642Z,56.52
2018-07-21T20:59:44.704Z,56.50
2018-07-21T21:02:28.219Z,56.61
2018-07-21T21:05:09.650Z,56.76
2018-07-21T21:07:42.999Z,56.77
2018-07-21T21:10:21.306Z,56.62
2018-07-21T21:13:02.022Z,56.41
2018-07-21T21:15:43.588Z,56.10
2018-07-21T21:18:18.806Z,55.92
2018-07-21T21:23:41.181Z,54.87
2018-07-21T21:26:22.490Z,55.05
2018-07-21T21:29:02.873Z,54.40
2018-07-21T21:31:38.705Z,54.63
2018-07-21T21:34:20.855Z,53.77
2018-07-21T21:36:58.569Z,55.01
2018-07-21T21:39:33.521Z,54.65
2018-07-21T21:42:14.965Z,55.31
2018-07-21T21:45:00.723Z,55.30
2018-07-21T21:47:38.690Z,55.73
2018-07-21T21:50:18.840Z,56.81
2018-07-21T21:53:00.774Z,56.67
2018-07-21T21:55:39.610Z,56.61
2018-07-21T21:58:18.887Z,55.57
2018-07-21T22:01:12.482Z,55.25
2018-07-21T22:03:47.746Z,55.27
2018-07-21T22:06:25.132Z,56.23
2018-07-21T22:09:01.499Z,56.35
2018-07-21T22:11:44.950Z,56.02
2018-07-21T22:14:25.267Z,57.52
2018-07-21T22:17:03.599Z,57.25
2018-07-21T22:22:27.117Z,56.18
2018-07-21T22:25:08.715Z,56.87
2018-07-21T22:27:53.656Z,56.52
2018-07-21T22:30:35.369Z,57.96
2018-07-21T22:33:11.930Z,58.09
2018-07-21T22:35:58.214Z,57.26
2018-07-21T22:38:40.231Z,56.84
2018-07-21T22:41:18.867Z,58.63
2018-07-21T22:43:59.428Z,57.72
2018-07-21T22:46:38.075Z,57.74
2018-07-21T22:49:13.489Z,56.66
2018-07-21T22:51:55.465Z,57.07
2018-07-21T22:54:34.237Z,57.47
2018-07-21T22:57:21.695Z,59.19
2018-07-21T23:00:06.560Z,59.60
2018-07-21T23:02:47.368Z,60.38
2018-07-21T23:05:34.596Z,59.07
2018-07-21T23:08:17.302Z,57.85
2018-07-21T23:10:59.692Z,57.96
2018-07-21T23:13:43.664Z,57.71
2018-07-21T23:16:22.894Z,56.98
2018-07-21T23:19:00.509Z,56.46
2018-07-21T23:21:41.110Z,57.53
2018-07-21T23:24:23.157Z,58.06
2018-07-21T23:27:05.462Z,58.53
2018-07-21T23:29:45.537Z,61.13
2018-07-21T23:32:31.668Z,62.99
2018-07-21T23:35:09.701Z,62.79
2018-07-21T23:37:52.327Z,62.91
2018-07-21T23:40:36.166Z,63.60
2018-07-21T23:45:59.861Z,63.00
2018-07-21T23:48:36.821Z,63.13
2018-07-21T23:51:13.825Z,63.13
2018-07-21T23:53:52.944Z,64.01
2018-07-21T23:56:34.757Z,64.53
2018-07-21T23:59:11.794Z,64.68
